• Join FlightAware (Why Join?)
  • Login
  • US Flag 
10:15AM EDT


 

Airport Tracker/Info


-or-


 

Live Flight TrackerFlight Track Log ✈ EJA312 ✈ 18-Oct-2013 ✈ KLAS - KSAN

Flight Track Log - Related Links

Times and Time Zones

All times are in EDT time to prevent confusion due to time zone crossing. See the EJA312 flight status page for this flight to view local times or setup timezone preferences in your user account.

Time Position Orientation Groundspeed Altitude Reporting Facility
EDT Latitude Longitude Course Direction KTS MPH feet Rate Location/Type
02:50PM 36.1017 -115.1569 291° West 166 191 3,300  Level Los Angeles Center
02:52PM 36.1228 -115.2247 291° West 258 297 8,000 3,540 Climbing Los Angeles Center
02:52PM 36.1211 -115.2261 214° Southwest 266 306 8,200 1,920 Climbing Los Angeles Center
02:53PM 36.0833 -115.3014 238° Southwest 290 334 10,000 1,740 Climbing Los Angeles Center
02:53PM 36.0800 -115.3014 180° South 284 327 10,000  Level Los Angeles Center
02:54PM 36.0028 -115.3383 201° Southwest 297 342 10,000  Level Los Angeles Center
02:54PM 35.9967 -115.3408 198° South 300 345 10,000 2,220 Level Los Angeles Center
02:55PM 35.9250 -115.3772 202° Southwest 300 345 12,300 1,980 Climbing Los Angeles Center
02:55PM 35.9286 -115.3739 37° Northeast 298 343 12,100 2,880 Descending Los Angeles Center
02:57PM 35.7497 -115.3214 167° South 306 352 18,700 2,880 Climbing Los Angeles Center
02:58PM 35.6556 -115.2925 166° South 339 390 21,200 1,560 Climbing Los Angeles Center
02:59PM 35.5500 -115.2981 182° South 369 425 22,000 360 Climbing Los Angeles Center
03:00PM 35.4292 -115.3039 182° South 427 491 22,000 240 Level Los Angeles Center
03:01PM 35.3083 -115.3075 181° South 436 502 22,600 780 Climbing Los Angeles Center
03:02PM 35.1761 -115.3242 186° South 438 504 23,700 1,440 Climbing Los Angeles Center
03:03PM 35.0611 -115.3694 198° South 435 501 25,600 1,560 Climbing Los Angeles Center
03:04PM 34.9464 -115.4125 197° South 431 496 27,000 660 Climbing Los Angeles Center
03:05PM 34.8114 -115.4619 197° South 452 520 27,000  Level Los Angeles Center
03:06PM 34.6858 -115.5089 197° South 467 537 27,000  Level Los Angeles Center
03:07PM 34.5511 -115.5589 197° South 460 529 27,000  Level Los Angeles Center
03:08PM 34.4336 -115.6042 198° South 452 520 27,000  Level Los Angeles Center
03:09PM 34.3128 -115.6489 197° South 449 517 27,000  Level Los Angeles Center
03:10PM 34.1928 -115.6936 197° South 449 517 27,000 -300 Level Los Angeles Center
03:11PM 34.0739 -115.7381 197° South 448 516 26,400 -780 Descending Los Angeles Center
03:12PM 33.9292 -115.7906 197° South 452 520 25,500 -1,200 Descending Los Angeles Center
03:13PM 33.8075 -115.8378 198° South 457 526 24,000 -720 Descending Los Angeles Center
03:14PM 33.6853 -115.8822 197° South 458 527 24,000  Level Los Angeles Center
03:16PM 33.5736 -115.9222 197° South 430 495 24,000  Level Los Angeles Center
03:17PM 33.4850 -115.9964 215° Southwest 405 466 24,000 -780 Level Los Angeles Center
03:18PM 33.4219 -116.1047 235° Southwest 398 458 22,500 -2,160 Descending Los Angeles Center
03:19PM 33.3514 -116.2272 235° Southwest 382 440 19,600 -2,460 Descending Los Angeles Center
03:20PM 33.2644 -116.2931 212° Southwest 376 433 17,500 -1,980 Descending Los Angeles Center
03:21PM 33.1733 -116.3461 206° Southwest 368 423 15,600 -1,800 Descending Los Angeles Center
03:22PM 33.0903 -116.3944 206° Southwest 345 397 13,800 -1,680 Descending Los Angeles Center
03:23PM 33.0092 -116.4414 206° Southwest 323 372 12,200 -1,440 Descending Los Angeles Center
03:24PM 32.9325 -116.4864 206° Southwest 311 358 10,900 -1,560 Descending Los Angeles Center
03:25PM 32.8481 -116.5361 206° Southwest 303 349 9,000 -1,320 Descending Los Angeles Center
03:26PM 32.7753 -116.5775 206° Southwest 296 341 8,200 -1,020 Descending Los Angeles Center
03:27PM 32.6950 -116.6311 209° Southwest 292 336 7,000 -900 Descending Los Angeles Center
03:28PM 32.6839 -116.7236 262° West 287 330 6,400 -540 Descending Los Angeles Center
03:29PM 32.6781 -116.8122 266° West 275 316 6,000 -780 Descending Los Angeles Center
03:30PM 32.6747 -116.8933 267° West 253 291 4,800 -1,320 Descending Los Angeles Center
03:31PM 32.6800 -116.9686 275° West 236 272 3,300 -1,320 Descending Los Angeles Center
03:32PM 32.6953 -117.0344 285° West 215 247 2,100 -960 Descending Los Angeles Center
03:33PM 32.7086 -117.0883 286° West 154 177 1,400 -600 Descending Los Angeles Center
03:34PM 32.7181 -117.1256 287° West 129 148 900 -480 Descending Los Angeles Center
03:35PM 32.7261 -117.1606 285° West 116 133 500 -360 Descending Los Angeles Center
03:36PM 32.7358 -117.1964 288° West 114 131 200 -300 Descending Los Angeles Center
03:38PM 32.7336 -117.1897 103° East  Level Estimated